Auckland International Airport
NZAA : now visible

Airfield :











YOU CAN JOIN US ON...

 
LOGIN :

Register | Disclaimer

   EN    FR    IT 

 









Legend :    VFR   Marginal VFR   IFR   Intensive IFR   Very Intensive IFR
Visi :
Ceiling :
>= 8 km
>= 3000ft
5 to 8 km
1000 to 3000 ft
1500m to 5 km
500 to 1000 ft
800 to 1500m
200 to 500 ft
< 800m
< 200 ft
Symbols :   Thunderstorms  Fog  Heavy snow  Heavy precipitations  Wind > 20 kt






- Airport Elevation : 23 ft
- IATA code : AKL


NZAA - Auckland International

CURRENT METAR :
  • 050800Z AUTO 03010KT 9999 FEW018/// BKN027/// 20/17 Q1020 NOSIG

EXPIRED METARs :
  • 050730Z AUTO 03012KT 9999 FEW027/// SCT085/// 20/17 Q1020 NOSIG
  • 050700Z AUTO 03015KT 9999 FEW020/// BKN032/// BKN039/// 21/17 Q1020 NOSIG
  • 050630Z AUTO 03015KT 9999 FEW042/// 21/17 Q1019 NOSIG
  • 050600Z AUTO 03017KT 9999 FEW023/// BKN036/// 21/17 Q1019 NOSIG
  • 050530Z AUTO 03013KT 9999 SCT022/// BKN040/// 22/17 Q1019 NOSIG

TAF TAF NZAA
Valid from the 05 at 06:00 until the 06 at 06:00 UTC


050508Z 0506/0606 04015G25KT 9999 -SHRA FEW030 SCT040
BECMG 0508/0510 02012KT
PROB30 0514/0519 BKN012
PROB40
TEMPO 0601/0604 6000 SHRA
NZZC FIR / Oceania



MET'MAP, your aeronautical weather chart ! - Copyright ORBIFLY December 2007 - Disclaimer

ORBIFLY MET'MAP TEAM :

Programming & Development : Alexandra Zaïnal
Concept & original design : Baudouin d'Aumeries
Assistance for programming : Marc-Olivier Méhu
Technical & hardware support : Manuel Goepfert

Contact : metmap@orbifly.com




SOURCES & CREDITS :

   NOAA       Earth
Advisory